Time;durP1;ratioP1;P1;durP2;ratioP2;P2;SDS_P1;SDS_P2;PMS_P1;PMS_P2;Temp;Humidity;BMP_temperature;BMP_pressure;BME280_temperature;BME280_humidity;BME280_pressure;Samples;Min_cycle;Max_cycle;Signal;HPM_P1;HPM_P2
2022/03/31 00:02:28;;;;;;;19.20;15.53;;;;;;;7.49;100.00;153282.81;5014594;28;20808;-75
2022/03/31 00:05:03;;;;;;;21.00;16.47;;;;;;;7.42;100.00;153264.69;4999705;28;20472;-75
2022/03/31 00:07:50;;;;;;;22.70;16.23;;;;;;;7.46;100.00;153275.06;4999650;28;20460;-75
2022/03/31 00:10:27;;;;;;;21.80;15.10;;;;;;;7.42;100.00;153264.69;5018376;28;20432;-75
2022/03/31 00:13:05;;;;;;;19.70;14.97;;;;;;;7.32;100.00;153241.47;5034518;28;20828;-74
2022/03/31 00:15:40;;;;;;;26.47;17.00;;;;;;;7.34;100.00;153246.63;5030103;28;20479;-75
2022/03/31 00:18:16;;;;;;;21.67;15.50;;;;;;;7.40;100.00;153260.84;5014650;28;20531;-75
2022/03/31 00:20:52;;;;;;;21.83;16.27;;;;;;;7.40;100.00;153259.53;5013665;28;20465;-75
2022/03/31 00:23:29;;;;;;;22.60;15.97;;;;;;;7.39;100.00;153258.25;5014281;28;20436;-75
2022/03/31 00:26:05;;;;;;;19.47;14.97;;;;;;;7.36;100.00;153250.50;5013348;28;20476;-75
2022/03/31 00:28:40;;;;;;;20.53;15.37;;;;;;;7.28;100.00;153231.13;5011617;28;20463;-75
2022/03/31 00:31:16;;;;;;;22.37;16.40;;;;;;;7.18;100.00;153205.31;5015975;28;20432;-75
2022/03/31 00:33:51;;;;;;;19.50;15.57;;;;;;;7.19;100.00;153207.91;4999704;28;20444;-75
2022/03/31 00:36:27;;;;;;;23.23;16.50;;;;;;;7.26;100.00;153225.97;5013844;28;20551;-75
2022/03/31 00:41:59;;;;;;;23.10;17.00;;;;;;;7.20;100.00;153210.47;5013934;28;20453;-75
2022/03/31 00:44:35;;;;;;;22.33;15.60;;;;;;;7.23;100.00;153216.91;5014218;28;20444;-75
2022/03/31 00:47:10;;;;;;;21.10;16.13;;;;;;;7.22;100.00;153215.66;5011516;28;20490;-75
2022/03/31 00:49:46;;;;;;;19.93;14.97;;;;;;;7.16;100.00;153198.84;4999223;28;20436;-75
2022/03/31 00:52:22;;;;;;;22.10;15.47;;;;;;;7.14;100.00;153193.72;5014320;28;20445;-75
2022/03/31 00:54:59;;;;;;;22.57;16.70;;;;;;;7.07;100.00;153176.91;5013569;28;20451;-75
2022/03/31 00:57:35;;;;;;;22.40;16.00;;;;;;;6.94;100.00;153143.34;5013518;28;20444;-75
2022/03/31 01:00:11;;;;;;;18.50;14.70;;;;;;;6.88;100.00;153126.59;5012135;28;20975;-75
2022/03/31 01:02:47;;;;;;;22.70;16.10;;;;;;;6.89;100.00;153129.13;5010137;28;20456;-75
2022/03/31 01:05:22;;;;;;;19.30;15.00;;;;;;;6.93;100.00;153139.47;5012841;28;20452;-75
2022/03/31 01:07:58;;;;;;;19.10;14.93;;;;;;;6.94;100.00;153142.03;5013400;28;20440;-74
2022/03/31 01:10:35;;;;;;;21.07;14.97;;;;;;;6.91;100.00;153135.59;5014775;28;20905;-75
2022/03/31 01:13:10;;;;;;;19.77;14.57;;;;;;;6.88;100.00;153127.88;5029667;28;20433;-75
2022/03/31 01:15:46;;;;;;;20.30;14.40;;;;;;;6.84;100.00;153117.53;5029905;28;20460;-74
2022/03/31 01:18:21;;;;;;;22.17;14.60;;;;;;;6.87;100.00;153125.28;4997603;28;20438;-75
2022/03/31 01:20:57;;;;;;;21.50;15.47;;;;;;;6.85;100.00;153120.13;5029469;28;21061;-75
2022/03/31 01:23:34;;;;;;;19.40;13.93;;;;;;;6.86;100.00;153122.69;5012063;28;20451;-75
2022/03/31 01:26:10;;;;;;;16.87;14.40;;;;;;;6.81;100.00;153109.78;4998596;28;20472;-75
2022/03/31 01:28:46;;;;;;;18.43;14.37;;;;;;;6.82;100.00;153111.06;4997829;28;20796;-75
2022/03/31 01:31:22;;;;;;;17.27;13.30;;;;;;;6.84;100.00;153116.22;5013171;28;20464;-75
2022/03/31 01:33:58;;;;;;;18.73;12.97;;;;;;;6.75;100.00;153094.31;4992972;28;20938;-75
2022/03/31 01:36:34;;;;;;;17.77;13.83;;;;;;;6.79;100.00;153104.63;4997781;28;20773;-75
2022/03/31 01:39:11;;;;;;;20.10;14.27;;;;;;;6.79;100.00;153103.31;5009519;28;20467;-75
2022/03/31 01:41:46;;;;;;;17.37;13.30;;;;;;;6.80;100.00;153107.22;5016969;28;20484;-75
2022/03/31 01:44:22;;;;;;;18.70;14.03;;;;;;;6.71;100.00;153085.28;4996712;28;20452;-74
2022/03/31 01:46:58;;;;;;;17.63;12.73;;;;;;;6.70;100.00;153081.38;5014372;28;20439;-75
2022/03/31 01:49:36;;;;;;;16.43;12.30;;;;;;;6.65;100.00;153068.47;4997421;28;20445;-74
2022/03/31 01:52:11;;;;;;;17.23;13.00;;;;;;;6.59;100.00;153053.00;5013833;28;20550;-75
2022/03/31 01:54:48;;;;;;;17.83;12.30;;;;;;;6.56;100.00;153045.25;5011161;28;20472;-75
2022/03/31 01:57:24;;;;;;;17.97;13.87;;;;;;;6.55;100.00;153043.97;5012359;28;20559;-75
2022/03/31 02:00:02;;;;;;;14.30;11.53;;;;;;;6.56;100.00;153046.56;5012375;28;20500;-75
2022/03/31 02:02:48;;;;;;;16.43;11.40;;;;;;;6.52;100.00;153034.91;5012504;28;20555;-75
2022/03/31 02:05:23;;;;;;;18.00;12.60;;;;;;;6.45;100.00;153018.16;5028825;28;20440;-75
2022/03/31 02:07:59;;;;;;;16.23;11.83;;;;;;;6.47;100.00;153022.00;4997292;28;20445;-76
2022/03/31 02:10:36;;;;;;;16.10;13.17;;;;;;;6.43;100.00;153011.72;5009651;28;20475;-74
2022/03/31 02:13:12;;;;;;;17.20;12.33;;;;;;;6.45;100.00;153018.16;4995778;28;20468;-75
2022/03/31 02:15:47;;;;;;;16.90;11.50;;;;;;;6.40;100.00;153003.97;5012874;28;20899;-75
2022/03/31 02:18:23;;;;;;;16.33;13.10;;;;;;;6.40;100.00;153003.97;5013543;28;20515;-75
2022/03/31 02:20:59;;;;;;;14.70;11.80;;;;;;;6.43;100.00;153011.72;5012716;28;20464;-75
2022/03/31 02:23:34;;;;;;;17.47;13.00;;;;;;;6.39;100.00;153001.38;5013232;28;20420;-75
2022/03/31 02:26:11;;;;;;;16.00;12.90;;;;;;;6.34;100.00;152989.78;5012344;28;20452;-75
2022/03/31 02:28:47;;;;;;;16.57;12.47;;;;;;;6.33;100.00;152987.16;4996821;28;20474;-75
2022/03/31 02:31:22;;;;;;;17.07;13.00;;;;;;;6.35;100.00;152991.06;5028746;28;20919;-75
2022/03/31 02:33:58;;;;;;;14.83;12.30;;;;;;;6.40;100.00;153005.28;5027315;28;20785;-75
2022/03/31 02:36:34;;;;;;;17.30;12.97;;;;;;;6.43;100.00;153011.72;4997492;28;20946;-75
2022/03/31 02:39:10;;;;;;;16.77;12.80;;;;;;;6.40;100.00;153003.97;5028437;28;20432;-75
2022/03/31 02:41:46;;;;;;;15.07;11.83;;;;;;;6.43;100.00;153011.72;5012677;28;20918;-75
2022/03/31 02:44:22;;;;;;;17.90;12.50;;;;;;;6.42;100.00;153009.13;5011623;28;20449;-75
2022/03/31 02:46:57;;;;;;;18.50;13.00;;;;;;;6.44;100.00;153014.28;5012251;28;20440;-75
2022/03/31 02:49:33;;;;;;;16.70;13.30;;;;;;;6.43;100.00;153011.72;5011633;28;20432;-75
2022/03/31 02:52:09;;;;;;;18.90;13.13;;;;;;;6.41;100.00;153007.81;5011407;28;20464;-74
2022/03/31 02:57:38;;;;;;;18.70;13.70;;;;;;;6.40;100.00;153003.97;5028707;28;20531;-75
2022/03/31 03:00:15;;;;;;;19.50;14.17;;;;;;;6.35;100.00;152992.38;5008365;28;20461;-75
2022/03/31 03:02:51;;;;;;;18.93;13.50;;;;;;;6.34;100.00;152988.47;5023230;28;20448;-75
2022/03/31 03:05:26;;;;;;;17.30;12.70;;;;;;;6.37;100.00;152997.53;4995819;28;20475;-74
2022/03/31 03:08:02;;;;;;;18.77;12.43;;;;;;;6.34;100.00;152988.47;5012099;28;20444;-75
2022/03/31 03:10:37;;;;;;;17.47;13.80;;;;;;;6.29;100.00;152976.88;5009232;28;20456;-75
2022/03/31 03:13:17;;;;;;;14.57;11.90;;;;;;;6.13;100.00;152936.88;5012732;28;20780;-75
2022/03/31 03:15:54;;;;;;;18.23;13.80;;;;;;;6.07;100.00;152921.38;4992115;28;20928;-75
2022/03/31 03:18:29;;;;;;;18.87;14.03;;;;;;;6.00;100.00;152903.34;5008457;28;20437;-75
2022/03/31 03:21:07;;;;;;;19.40;15.50;;;;;;;5.85;100.00;152864.63;5008395;28;20980;-74
2022/03/31 03:23:42;;;;;;;20.37;15.07;;;;;;;5.81;100.00;152852.97;5002965;28;20436;-74
2022/03/31 03:26:18;;;;;;;21.57;16.17;;;;;;;5.79;100.00;152847.81;5010736;28;20460;-74
2022/03/31 03:28:56;;;;;;;20.70;14.67;;;;;;;5.75;100.00;152838.78;4996704;28;20935;-74
2022/03/31 03:31:31;;;;;;;19.23;14.50;;;;;;;5.73;100.00;152833.63;5011557;28;20920;-75
2022/03/31 03:34:07;;;;;;;22.63;16.60;;;;;;;5.74;100.00;152836.22;5010817;28;20448;-75
2022/03/31 03:36:43;;;;;;;19.17;14.80;;;;;;;5.72;100.00;152829.78;5026827;28;20456;-74
2022/03/31 03:39:19;;;;;;;19.90;15.00;;;;;;;5.72;100.00;152829.78;5026970;28;20440;-75
2022/03/31 03:41:54;;;;;;;18.40;14.60;;;;;;;5.70;100.00;152825.88;4991741;28;20508;-75
2022/03/31 03:44:31;;;;;;;21.67;15.70;;;;;;;5.64;100.00;152810.41;5022928;28;20453;-74
2022/03/31 03:47:07;;;;;;;23.53;16.50;;;;;;;5.61;100.00;152802.72;5011796;28;20453;-75
2022/03/31 03:49:42;;;;;;;21.70;15.50;;;;;;;5.58;100.00;152793.66;5027657;28;20479;-75
2022/03/31 03:52:18;;;;;;;21.40;15.17;;;;;;;5.65;100.00;152813.00;5012785;28;20440;-75
2022/03/31 03:54:54;;;;;;;20.17;15.87;;;;;;;5.61;100.00;152801.41;5011262;28;20927;-74
2022/03/31 03:57:29;;;;;;;22.90;15.90;;;;;;;5.63;100.00;152807.84;5031348;28;20535;-75
2022/03/31 04:00:09;;;;;;;19.73;15.37;;;;;;;5.64;100.00;152810.41;4999268;28;20436;-75
2022/03/31 04:02:45;;;;;;;19.20;16.20;;;;;;;5.65;100.00;152811.69;5014175;28;20468;-75
2022/03/31 04:05:21;;;;;;;23.93;17.60;;;;;;;5.57;100.00;152792.38;4999604;28;20456;-75
2022/03/31 04:07:56;;;;;;;22.40;17.47;;;;;;;5.52;100.00;152779.47;5015080;28;20432;-75
2022/03/31 04:10:34;;;;;;;18.97;14.50;;;;;;;5.51;100.00;152776.88;5008855;28;20437;-75
2022/03/31 04:13:09;;;;;;;20.70;16.13;;;;;;;5.56;100.00;152789.75;5011649;28;20520;-75
2022/03/31 04:15:46;;;;;;;20.97;15.60;;;;;;;5.57;100.00;152792.38;4994731;28;21145;-75
2022/03/31 04:18:21;;;;;;;19.03;15.30;;;;;;;5.51;100.00;152776.88;4994723;28;20449;-74
2022/03/31 04:21:01;;;;;;;22.10;16.50;;;;;;;5.52;100.00;152779.47;4995341;28;20473;-74
2022/03/31 04:23:37;;;;;;;23.00;16.80;;;;;;;5.50;100.00;152775.63;5030985;28;20805;-75
2022/03/31 04:26:12;;;;;;;20.40;15.03;;;;;;;5.48;100.00;152769.19;5014572;28;20448;-74
2022/03/31 04:28:47;;;;;;;18.90;14.37;;;;;;;5.47;100.00;152766.59;5014603;28;20433;-75
2022/03/31 04:31:24;;;;;;;20.00;15.20;;;;;;;5.44;100.00;152758.84;5013738;28;20457;-74
2022/03/31 04:34:00;;;;;;;20.93;15.20;;;;;;;5.45;100.00;152761.44;5014154;28;20429;-75
2022/03/31 04:36:35;;;;;;;22.90;17.13;;;;;;;5.43;100.00;152756.25;5013917;28;20932;-75
2022/03/31 04:39:13;;;;;;;20.50;15.47;;;;;;;5.32;100.00;152727.91;5013796;28;20792;-75
2022/03/31 04:41:48;;;;;;;20.60;15.00;;;;;;;5.30;100.00;152722.72;4984773;28;20575;-75
2022/03/31 04:44:24;;;;;;;19.70;14.13;;;;;;;5.29;100.00;152720.19;5010857;28;20920;-74
2022/03/31 04:47:01;;;;;;;22.70;14.90;;;;;;;5.30;100.00;152722.72;5010975;28;20441;-75
2022/03/31 04:49:36;;;;;;;20.80;15.80;;;;;;;5.28;100.00;152717.59;5008746;28;20492;-75
2022/03/31 04:52:12;;;;;;;21.70;16.20;;;;;;;5.28;100.00;152717.59;4978826;28;20450;-75
2022/03/31 04:54:47;;;;;;;23.60;15.33;;;;;;;5.22;100.00;152702.09;4994168;28;20524;-75
2022/03/31 04:57:23;;;;;;;23.90;17.17;;;;;;;5.18;100.00;152693.09;5008623;28;20456;-75
2022/03/31 04:59:58;;;;;;;22.70;16.60;;;;;;;5.04;100.00;152655.69;5007692;28;20448;-75
2022/03/31 05:02:35;;;;;;;22.20;16.93;;;;;;;5.06;100.00;152660.84;5013649;28;20472;-75
2022/03/31 05:05:12;;;;;;;23.63;16.53;;;;;;;5.04;100.00;152657.00;5013840;28;20444;-75
2022/03/31 05:07:48;;;;;;;28.37;18.50;;;;;;;5.03;100.00;152653.16;5013172;28;20506;-75
2022/03/31 05:10:23;;;;;;;20.77;16.13;;;;;;;5.07;100.00;152664.75;5014823;28;20452;-75
2022/03/31 05:12:59;;;;;;;23.57;16.70;;;;;;;4.99;100.00;152642.81;5005679;28;20570;-75
2022/03/31 05:15:34;;;;;;;22.50;18.07;;;;;;;4.87;100.00;152614.47;4991880;28;20461;-74
2022/03/31 05:18:12;;;;;;;23.77;16.90;;;;;;;4.87;100.00;152614.47;4994453;28;20444;-75
2022/03/31 05:20:47;;;;;;;23.80;16.47;;;;;;;4.81;100.00;152599.03;5012019;28;20454;-75
2022/03/31 05:23:23;;;;;;;25.67;17.70;;;;;;;4.84;100.00;152606.72;5010309;28;20457;-74
2022/03/31 05:25:59;;;;;;;20.23;15.67;;;;;;;4.79;100.00;152592.59;5014208;28;20448;-75
2022/03/31 05:28:34;;;;;;;23.03;16.73;;;;;;;4.79;100.00;152593.84;5012125;28;20441;-74
2022/03/31 05:31:10;;;;;;;21.53;16.50;;;;;;;4.83;100.00;152602.88;5012285;28;20796;-74
2022/03/31 05:33:47;;;;;;;23.50;17.00;;;;;;;4.76;100.00;152586.16;5011742;28;20448;-74
2022/03/31 05:36:23;;;;;;;25.60;17.30;;;;;;;4.80;100.00;152596.44;5007432;28;20498;-74
2022/03/31 05:38:58;;;;;;;24.70;17.23;;;;;;;4.82;100.00;152601.56;5012917;28;20436;-75
2022/03/31 05:41:34;;;;;;;23.70;18.17;;;;;;;4.85;100.00;152609.31;4996428;28;20481;-74
2022/03/31 05:44:10;;;;;;;22.70;18.30;;;;;;;4.95;100.00;152633.78;5004823;28;20448;-74
2022/03/31 05:46:46;;;;;;;23.93;17.40;;;;;;;4.82;100.00;152601.56;5009657;28;20955;-74
2022/03/31 05:49:23;;;;;;;23.97;17.83;;;;;;;4.83;100.00;152602.88;5009853;28;20483;-74
2022/03/31 05:51:59;;;;;;;23.70;17.83;;;;;;;4.87;100.00;152614.47;5010729;28;20436;-74
2022/03/31 05:54:34;;;;;;;19.63;15.77;;;;;;;4.81;100.00;152599.03;4994593;28;20432;-74
2022/03/31 05:57:10;;;;;;;25.50;17.60;;;;;;;4.81;100.00;152597.72;5011028;28;20872;-74
2022/03/31 05:59:46;;;;;;;21.30;16.87;;;;;;;4.84;100.00;152606.72;5010515;28;20448;-74
2022/03/31 06:02:21;;;;;;;25.10;18.47;;;;;;;4.84;100.00;152606.72;5009218;28;20864;-74
2022/03/31 06:04:58;;;;;;;23.20;17.23;;;;;;;4.78;100.00;152591.28;4992118;28;20448;-74
2022/03/31 06:07:34;;;;;;;22.10;16.00;;;;;;;4.86;100.00;152611.91;5012485;28;20448;-73
2022/03/31 06:10:10;;;;;;;25.50;16.13;;;;;;;4.86;100.00;152610.63;4997179;28;20444;-74
2022/03/31 06:12:46;;;;;;;22.73;17.20;;;;;;;4.89;100.00;152619.66;5011517;28;20515;-75
2022/03/31 06:15:21;;;;;;;23.67;15.07;;;;;;;4.87;100.00;152614.47;5011657;28;20440;-75
2022/03/31 06:17:57;;;;;;;20.33;15.57;;;;;;;4.93;100.00;152629.94;4995520;28;20441;-74
2022/03/31 06:20:35;;;;;;;24.30;17.70;;;;;;;4.90;100.00;152622.19;4995738;28;20444;-74
2022/03/31 06:23:10;;;;;;;24.17;16.43;;;;;;;4.93;100.00;152629.94;4993783;28;20469;-74
2022/03/31 06:25:46;;;;;;;21.30;16.10;;;;;;;4.88;100.00;152615.75;4995991;28;20539;-74
2022/03/31 06:28:23;;;;;;;23.40;16.40;;;;;;;4.87;100.00;152614.47;5010887;28;20452;-74
2022/03/31 06:30:59;;;;;;;26.50;16.57;;;;;;;4.93;100.00;152629.94;4996107;28;20466;-74
2022/03/31 06:33:34;;;;;;;22.67;16.43;;;;;;;4.97;100.00;152638.97;5011196;28;20495;-74
2022/03/31 06:36:12;;;;;;;26.87;18.30;;;;;;;4.96;100.00;152635.06;5011275;28;20452;-74
2022/03/31 06:38:47;;;;;;;21.53;15.47;;;;;;;5.03;100.00;152653.16;4995599;28;21046;-74
2022/03/31 06:41:23;;;;;;;23.90;16.50;;;;;;;5.06;100.00;152660.84;5010296;28;21057;-74
2022/03/31 06:43:59;;;;;;;22.70;16.03;;;;;;;5.05;100.00;152658.31;4994591;28;20902;-75
2022/03/31 06:46:35;;;;;;;27.07;16.40;;;;;;;5.08;100.00;152666.03;5011048;28;20460;-74
2022/03/31 06:49:11;;;;;;;22.63;15.17;;;;;;;5.05;100.00;152659.59;5009420;28;20445;-74
2022/03/31 06:51:48;;;;;;;20.27;14.47;;;;;;;5.10;100.00;152672.47;4993305;28;20456;-74
2022/03/31 06:54:23;;;;;;;24.10;15.70;;;;;;;5.12;100.00;152676.31;4995216;28;20515;-75
2022/03/31 06:57:07;;;;;;;21.30;15.23;;;;;;;5.13;100.00;152678.94;5010326;28;20444;-75
2022/03/31 07:00:21;;;;;;;22.23;17.60;;;;;;;5.17;100.00;152689.22;5025972;28;20460;-76
2022/03/31 07:02:57;;;;;;;20.23;14.60;;;;;;;5.20;100.00;152696.94;4996755;28;20476;-76
2022/03/31 07:05:32;;;;;;;19.47;15.17;;;;;;;5.19;100.00;152694.41;4992639;28;20928;-75
2022/03/31 07:08:10;;;;;;;23.30;17.03;;;;;;;5.17;100.00;152690.50;5006915;28;20461;-75
2022/03/31 07:10:45;;;;;;;21.40;14.80;;;;;;;5.22;100.00;152702.09;5010183;28;20882;-75
2022/03/31 07:13:21;;;;;;;20.23;15.67;;;;;;;5.23;100.00;152704.69;5033597;28;20446;-75
2022/03/31 07:15:56;;;;;;;21.60;15.50;;;;;;;5.26;100.00;152713.75;5051608;28;20434;-75
2022/03/31 07:18:32;;;;;;;22.77;15.60;;;;;;;5.29;100.00;152721.47;5034170;28;20454;-75
2022/03/31 07:21:07;;;;;;;24.33;16.60;;;;;;;5.38;100.00;152743.34;5052458;28;20537;-75
2022/03/31 07:23:48;;;;;;;18.13;13.80;;;;;;;5.43;100.00;152757.53;5026760;28;20438;-75
2022/03/31 07:26:24;;;;;;;20.10;14.70;;;;;;;5.51;100.00;152776.88;5034199;28;20831;-75
2022/03/31 07:29:00;;;;;;;21.70;15.60;;;;;;;5.42;100.00;152755.00;5050702;28;21019;-75
2022/03/31 07:31:36;;;;;;;21.37;14.63;;;;;;;5.38;100.00;152744.66;5030536;28;20777;-75
2022/03/31 07:34:11;;;;;;;19.37;15.00;;;;;;;5.44;100.00;152758.84;5033413;28;20454;-75
2022/03/31 07:36:47;;;;;;;22.13;16.60;;;;;;;5.45;100.00;152761.44;5022549;28;20890;-75
2022/03/31 07:39:24;;;;;;;21.43;16.73;;;;;;;5.46;100.00;152764.00;5023188;28;20454;-75
2022/03/31 07:41:59;;;;;;;21.67;15.93;;;;;;;5.56;100.00;152789.75;5031854;28;20960;-76
2022/03/31 07:44:35;;;;;;;21.93;15.73;;;;;;;5.50;100.00;152774.31;5037868;28;20465;-75
2022/03/31 07:47:10;;;;;;;20.47;14.43;;;;;;;5.63;100.00;152806.56;5051093;28;20913;-75
2022/03/31 07:49:49;;;;;;;22.97;16.50;;;;;;;5.68;100.00;152819.44;5049026;28;20438;-76
2022/03/31 07:52:24;;;;;;;22.67;16.40;;;;;;;5.77;100.00;152843.94;5029615;28;20779;-75
2022/03/31 07:55:01;;;;;;;19.43;14.67;;;;;;;5.72;100.00;152831.03;5034397;28;20431;-75
2022/03/31 07:57:38;;;;;;;21.90;16.10;;;;;;;5.64;100.00;152810.41;5037221;28;20525;-75
2022/03/31 08:00:14;;;;;;;21.47;15.50;;;;;;;5.71;100.00;152828.47;5022355;28;20431;-75
2022/03/31 08:02:51;;;;;;;23.20;17.87;;;;;;;5.79;100.00;152847.81;5035572;28;20462;-75
2022/03/31 08:05:29;;;;;;;23.97;15.07;;;;;;;5.80;100.00;152851.66;5040212;28;20473;-75
2022/03/31 08:08:06;;;;;;;20.07;15.07;;;;;;;5.81;100.00;152854.28;5055102;28;20529;-75
2022/03/31 08:10:43;;;;;;;24.13;16.80;;;;;;;5.87;100.00;152869.81;5038538;28;20451;-76
2022/03/31 08:13:28;;;;;;;19.73;15.47;;;;;;;5.88;100.00;152871.06;5052049;28;20442;-75
2022/03/31 08:16:05;;;;;;;23.30;17.90;;;;;;;5.82;100.00;152856.88;5037097;28;20474;-75
2022/03/31 08:18:41;;;;;;;21.80;16.00;;;;;;;5.82;100.00;152856.88;5037368;28;20423;-75
2022/03/31 08:21:16;;;;;;;24.03;16.90;;;;;;;5.85;100.00;152863.38;5018033;28;20692;-75
2022/03/31 08:23:52;;;;;;;22.67;17.30;;;;;;;5.82;100.00;152856.88;5015579;28;20952;-75
2022/03/31 08:26:29;;;;;;;23.00;16.07;;;;;;;5.90;100.00;152876.25;5033162;28;21124;-75
2022/03/31 08:29:04;;;;;;;19.83;14.93;;;;;;;6.01;100.00;152904.66;5034545;28;20849;-76
2022/03/31 08:31:40;;;;;;;21.27;15.43;;;;;;;6.00;100.00;152903.34;5034315;28;20451;-75
2022/03/31 08:34:16;;;;;;;23.63;17.60;;;;;;;6.01;100.00;152905.88;5033552;28;20471;-75
2022/03/31 08:36:51;;;;;;;20.07;15.87;;;;;;;6.05;100.00;152914.94;5038883;28;20523;-76
2022/03/31 08:39:27;;;;;;;20.10;15.67;;;;;;;6.08;100.00;152923.97;5053307;28;20978;-76
2022/03/31 08:42:05;;;;;;;22.97;16.50;;;;;;;6.08;100.00;152923.97;5035824;28;20471;-75
2022/03/31 08:44:41;;;;;;;21.50;16.37;;;;;;;6.17;100.00;152944.63;5034651;28;20770;-76
2022/03/31 08:47:17;;;;;;;23.50;17.40;;;;;;;6.16;100.00;152943.31;5019484;28;20612;-75
2022/03/31 08:49:54;;;;;;;22.70;17.00;;;;;;;6.19;100.00;152949.78;5033407;28;20428;-75
2022/03/31 08:52:30;;;;;;;26.00;18.73;;;;;;;6.24;100.00;152963.97;5033553;28;20440;-75
2022/03/31 08:55:06;;;;;;;23.83;17.53;;;;;;;6.26;100.00;152969.13;5035179;28;20854;-75
2022/03/31 08:57:45;;;;;;;24.50;18.63;;;;;;;6.23;100.00;152961.38;5037209;28;20455;-76
2022/03/31 09:00:22;;;;;;;22.47;17.13;;;;;;;6.30;100.00;152978.16;5035273;28;20430;-75
2022/03/31 09:02:59;;;;;;;26.40;17.60;;;;;;;6.30;100.00;152978.16;5035977;28;20462;-76
2022/03/31 09:05:36;;;;;;;24.00;18.47;;;;;;;6.26;100.00;152969.13;5020355;28;20790;-75
2022/03/31 09:08:13;;;;;;;29.23;17.80;;;;;;;6.23;100.00;152960.06;5050071;28;20542;-75
2022/03/31 09:10:50;;;;;;;25.03;17.90;;;;;;;6.21;100.00;152954.94;5020634;28;20486;-76
2022/03/31 09:13:29;;;;;;;22.77;17.27;;;;;;;6.32;100.00;152983.31;5035257;28;20918;-75
2022/03/31 09:16:08;;;;;;;21.73;17.17;;;;;;;6.42;100.00;153009.13;5031882;28;20451;-75
2022/03/31 09:18:43;;;;;;;22.33;16.97;;;;;;;6.46;100.00;153019.47;5035238;28;20957;-75
2022/03/31 09:21:22;;;;;;;23.40;16.40;;;;;;;6.53;100.00;153037.50;5035767;28;20442;-75
2022/03/31 09:23:59;;;;;;;24.00;17.33;;;;;;;6.53;100.00;153037.50;5015874;28;20541;-75
2022/03/31 09:26:45;;;;;;;24.00;17.30;;;;;;;6.50;100.00;153029.75;5027860;28;20455;-75
2022/03/31 09:29:24;;;;;;;24.50;17.40;;;;;;;6.59;100.00;153053.00;5018286;28;20482;-76
2022/03/31 09:32:07;;;;;;;29.40;20.50;;;;;;;6.63;100.00;153063.31;5032907;28;20443;-75
2022/03/31 09:34:44;;;;;;;25.87;18.20;;;;;;;6.71;100.00;153083.97;5035678;28;20449;-76
2022/03/31 09:37:20;;;;;;;22.70;17.30;;;;;;;6.67;100.00;153073.66;5019252;28;20837;-75
2022/03/31 09:39:59;;;;;;;29.50;17.10;;;;;;;6.69;100.00;153080.13;5035067;28;20431;-76
2022/03/31 09:42:58;;;;;;;24.00;15.43;;;;;;;6.71;100.00;153085.28;5052461;28;20473;-76
2022/03/31 09:45:40;;;;;;;27.20;18.87;;;;;;;6.77;100.00;153098.19;5033687;28;20447;-76
2022/03/31 09:48:20;;;;;;;26.93;18.83;;;;;;;6.97;100.00;153149.78;5033821;28;21038;-76
2022/03/31 09:50:55;;;;;;;22.80;17.43;;;;;;;7.06;100.00;153174.34;5034778;28;20439;-76
2022/03/31 09:53:32;;;;;;;21.67;17.13;;;;;;;6.93;100.00;153140.78;5033770;28;20443;-75
2022/03/31 09:56:08;;;;;;;20.30;16.77;;;;;;;6.94;100.00;153142.03;5034833;28;20443;-76
2022/03/31 09:58:46;;;;;;;24.80;18.80;;;;;;;7.07;100.00;153176.91;5015681;28;20896;-76
2022/03/31 10:01:23;;;;;;;25.40;18.60;;;;;;;7.16;100.00;153200.16;5024039;28;20452;-76
2022/03/31 10:03:59;;;;;;;23.47;17.27;;;;;;;7.27;100.00;153227.28;5033980;28;20823;-76
2022/03/31 10:06:35;;;;;;;23.67;17.23;;;;;;;7.34;100.00;153246.63;5034199;28;20438;-75
2022/03/31 10:09:13;;;;;;;24.37;18.53;;;;;;;7.38;100.00;153254.41;5019124;28;20442;-76
2022/03/31 10:11:51;;;;;;;24.00;17.60;;;;;;;7.49;100.00;153282.81;5029240;28;20475;-76
2022/03/31 10:14:31;;;;;;;21.83;17.60;;;;;;;7.59;100.00;153308.63;5019577;28;20447;-75
2022/03/31 10:17:09;;;;;;;25.53;15.57;;;;;;;7.71;100.00;153339.63;5025107;28;21073;-76
2022/03/31 10:19:46;;;;;;;23.87;18.30;;;;;;;7.66;100.00;153326.72;5002775;28;20870;-76
2022/03/31 10:25:16;;;;;;;25.37;17.90;;;;;;;7.88;100.00;153383.56;5019886;28;20441;-75
2022/03/31 10:27:52;;;;;;;23.63;16.60;;;;;;;8.08;100.00;153435.22;5026796;28;20431;-76
2022/03/31 10:30:28;;;;;;;26.33;18.43;;;;;;;8.34;99.30;153502.47;5014404;28;20456;-76
2022/03/31 10:33:08;;;;;;;22.53;18.17;;;;;;;8.18;97.78;153461.06;5009135;28;20439;-75
2022/03/31 10:35:43;;;;;;;24.33;17.20;;;;;;;8.15;97.69;153453.34;5015786;28;20447;-75
2022/03/31 10:38:23;;;;;;;21.23;16.00;;;;;;;8.22;98.11;153471.44;5022809;28;20499;-75
2022/03/31 10:41:02;;;;;;;22.43;17.30;;;;;;;8.14;98.48;153449.44;5012113;28;20791;-75
2022/03/31 10:43:40;;;;;;;23.87;18.97;;;;;;;8.26;98.63;153481.75;5011168;28;20476;-76
2022/03/31 10:46:17;;;;;;;26.00;16.50;;;;;;;8.54;100.00;153552.91;5011188;28;20445;-75
2022/03/31 10:48:55;;;;;;;21.90;16.50;;;;;;;8.57;98.25;153561.97;5024328;28;20452;-76
2022/03/31 10:51:35;;;;;;;25.73;17.10;;;;;;;8.64;98.03;153577.44;5027669;28;20923;-75
2022/03/31 10:54:12;;;;;;;23.23;17.17;;;;;;;8.58;97.78;153564.53;5016132;28;20440;-76
2022/03/31 10:56:47;;;;;;;20.57;16.20;;;;;;;8.66;97.18;153582.66;5029437;28;20447;-76
2022/03/31 10:59:23;;;;;;;22.80;16.30;;;;;;;8.45;97.58;153530.91;4996322;28;20806;-76
2022/03/31 11:02:03;;;;;;;24.30;17.53;;;;;;;8.58;97.48;153564.53;5030867;28;20945;-76
2022/03/31 11:04:48;;;;;;;20.70;15.63;;;;;;;8.50;97.15;153543.84;5022072;28;20453;-76
2022/03/31 11:07:25;;;;;;;23.50;16.67;;;;;;;8.55;97.49;153556.75;4999213;28;20461;-75
2022/03/31 11:10:01;;;;;;;19.87;15.77;;;;;;;8.41;97.23;153519.28;4991836;28;20452;-75
2022/03/31 11:12:37;;;;;;;25.70;17.90;;;;;;;8.40;97.25;153518.00;5034178;28;21281;-76
2022/03/31 11:15:14;;;;;;;24.97;17.30;;;;;;;8.32;98.04;153496.00;5056489;28;20442;-76
2022/03/31 11:17:49;;;;;;;23.43;17.13;;;;;;;8.26;98.09;153481.75;5051159;28;20451;-75
2022/03/31 11:20:26;;;;;;;24.07;17.33;;;;;;;8.32;98.09;153496.00;5022906;28;20913;-76
2022/03/31 11:23:06;;;;;;;22.83;16.10;;;;;;;8.40;97.58;153518.00;5038674;28;20561;-76
2022/03/31 11:25:44;;;;;;;20.83;15.53;;;;;;;8.55;97.43;153556.75;5039818;28;20525;-75
2022/03/31 11:28:20;;;;;;;22.97;17.70;;;;;;;8.67;96.52;153585.22;5057564;28;20430;-76
2022/03/31 11:30:55;;;;;;;20.70;16.60;;;;;;;8.58;96.88;153564.53;5021066;28;20450;-76
2022/03/31 11:33:35;;;;;;;20.57;16.83;;;;;;;8.73;97.06;153602.03;5057287;28;20454;-75
2022/03/31 11:36:12;;;;;;;21.50;16.47;;;;;;;8.70;96.35;153592.97;5040188;28;20435;-76
2022/03/31 11:38:55;;;;;;;21.93;15.87;;;;;;;8.70;95.96;153592.97;5041748;28;20476;-76
2022/03/31 11:41:38;;;;;;;23.67;17.43;;;;;;;8.71;96.57;153596.81;5037882;28;20443;-75
2022/03/31 11:44:14;;;;;;;22.47;16.20;;;;;;;8.65;95.77;153580.03;5055426;28;20494;-75
2022/03/31 11:46:50;;;;;;;24.77;17.00;;;;;;;8.73;95.97;153600.72;5040383;28;20777;-75
2022/03/31 11:49:27;;;;;;;19.87;15.03;;;;;;;8.58;96.84;153564.53;5038558;28;20450;-76
2022/03/31 11:52:06;;;;;;;18.37;15.07;;;;;;;8.64;96.16;153577.44;5039966;28;20481;-76
2022/03/31 11:54:42;;;;;;;19.87;16.20;;;;;;;8.48;96.53;153538.69;5038769;28;20451;-74
2022/03/31 11:57:17;;;;;;;21.30;15.50;;;;;;;8.58;97.42;153564.53;5039933;28;20453;-74
2022/03/31 11:59:53;;;;;;;21.13;15.90;;;;;;;8.63;97.39;153574.88;5039489;28;20442;-74
2022/03/31 12:02:29;;;;;;;23.90;16.00;;;;;;;8.73;96.80;153600.72;5040069;28;20491;-74